createdAt,value
2017-02-12T00:01:02.115Z,75.55
2017-02-12T00:02:12.079Z,75.55
2017-02-12T00:03:22.855Z,75.59
2017-02-12T00:04:33.243Z,75.55
2017-02-12T00:05:43.652Z,75.59
2017-02-12T00:06:53.613Z,75.4
2017-02-12T00:08:03.966Z,75.4
2017-02-12T00:09:14.703Z,75.55
2017-02-12T00:10:25.071Z,75.59
2017-02-12T00:11:35.814Z,75.4
2017-02-12T00:12:46.181Z,75.59
2017-02-12T00:13:56.934Z,75.31
2017-02-12T00:15:07.291Z,75.68
2017-02-12T00:16:18.030Z,75.68
2017-02-12T00:17:28.828Z,75.02
2017-02-12T00:18:39.565Z,75.02
2017-02-12T00:19:49.934Z,75.21
2017-02-12T00:21:00.293Z,75.02
2017-02-12T00:22:10.259Z,75.02
2017-02-12T00:23:20.626Z,75.78
2017-02-12T00:24:31.003Z,75.68
2017-02-12T00:25:40.977Z,75.68
2017-02-12T00:26:51.359Z,75.11
2017-02-12T00:28:02.112Z,75.4
2017-02-12T00:29:12.921Z,75.4
2017-02-12T00:30:22.900Z,75.21
2017-02-12T00:31:33.643Z,75.02
2017-02-12T00:32:44.390Z,75.31
2017-02-12T00:33:55.162Z,75.02
2017-02-12T00:35:05.909Z,75.02
2017-02-12T00:36:16.684Z,75.4
2017-02-12T00:37:27.437Z,75.49
2017-02-12T00:38:37.787Z,75.21
2017-02-12T00:39:47.743Z,75.68
2017-02-12T00:40:58.480Z,75.4
2017-02-12T00:42:08.868Z,75.59
2017-02-12T00:43:19.611Z,75.68
2017-02-12T00:44:30.371Z,75.59
2017-02-12T00:45:41.121Z,75.68
2017-02-12T00:46:51.925Z,75.68
2017-02-12T00:48:02.322Z,75.68
2017-02-12T00:49:13.101Z,75.59
2017-02-12T00:50:23.059Z,75.4
2017-02-12T00:51:33.804Z,75.4
2017-02-12T00:52:44.566Z,75.4
2017-02-12T00:53:55.352Z,75.21
2017-02-12T00:55:05.718Z,75.68
2017-02-12T00:56:16.100Z,75.68
2017-02-12T00:57:26.448Z,75.68
2017-02-12T00:58:36.810Z,75.59
2017-02-12T00:59:47.233Z,75.59
2017-02-12T01:00:57.979Z,75.59
2017-02-12T01:02:08.331Z,75.59
2017-02-12T01:03:18.678Z,75.4
2017-02-12T01:04:29.469Z,75.78
2017-02-12T01:05:39.820Z,75.4
2017-02-12T01:06:50.564Z,75.59
2017-02-12T01:08:01.298Z,75.59
2017-02-12T01:09:12.045Z,75.4
2017-02-12T01:10:22.789Z,75.59
2017-02-12T01:11:33.145Z,75.4
2017-02-12T01:12:43.509Z,75.68
2017-02-12T01:13:53.845Z,75.59
2017-02-12T01:15:04.201Z,75.59
2017-02-12T01:16:14.947Z,75.59
2017-02-12T01:17:25.722Z,75.59
2017-02-12T01:18:35.280Z,75.68
2017-02-12T01:19:46.041Z,75.68
2017-02-12T01:20:56.389Z,75.68
2017-02-12T01:22:07.133Z,75.4
2017-02-12T01:23:17.880Z,75.59
2017-02-12T01:24:28.621Z,75.49
2017-02-12T01:25:39.365Z,75.49
2017-02-12T01:26:50.117Z,75.4
2017-02-12T01:28:00.868Z,75.59
2017-02-12T01:29:11.210Z,75.59
2017-02-12T01:30:21.170Z,75.49
2017-02-12T01:31:31.121Z,75.49
2017-02-12T01:32:41.477Z,75.49
2017-02-12T01:33:51.827Z,75.68
2017-02-12T01:35:01.789Z,75.74
2017-02-12T01:36:12.526Z,75.68
2017-02-12T01:37:22.483Z,75.68
2017-02-12T01:38:32.449Z,75.59
2017-02-12T01:39:42.902Z,75.59
2017-02-12T01:40:53.243Z,75.59
2017-02-12T01:42:03.206Z,75.68
2017-02-12T01:43:13.951Z,75.45
2017-02-12T01:44:24.688Z,75.45
2017-02-12T01:45:34.635Z,75.55
2017-02-12T01:46:45.408Z,75.55
2017-02-12T01:47:55.753Z,75.55
2017-02-12T01:49:06.095Z,75.55
2017-02-12T01:50:16.452Z,75.45
2017-02-12T01:51:26.800Z,75.64
2017-02-12T01:52:37.159Z,75.55
2017-02-12T01:53:47.108Z,75.55
2017-02-12T01:54:57.873Z,75.64
2017-02-12T01:56:08.619Z,75.55
2017-02-12T01:57:18.984Z,75.64
2017-02-12T01:58:29.730Z,75.64
2017-02-12T01:59:40.482Z,75.64
2017-02-12T02:00:50.834Z,75.45
2017-02-12T02:02:01.182Z,75.45
2017-02-12T02:03:11.531Z,75.55
2017-02-12T02:04:21.487Z,75.55
2017-02-12T02:05:31.823Z,75.55
2017-02-12T02:06:41.772Z,75.55
2017-02-12T02:07:51.332Z,75.64
2017-02-12T02:09:01.683Z,75.64
2017-02-12T02:10:12.037Z,75.55
2017-02-12T02:11:22.384Z,75.36
2017-02-12T02:12:33.128Z,75.64
2017-02-12T02:13:43.486Z,75.64
2017-02-12T02:14:54.225Z,75.55
2017-02-12T02:16:04.966Z,75.55
2017-02-12T02:17:15.330Z,75.64
2017-02-12T02:18:25.284Z,75.55
2017-02-12T02:19:35.630Z,75.45
2017-02-12T02:20:45.975Z,75.45
2017-02-12T02:21:56.324Z,75.45
2017-02-12T02:23:07.070Z,75.45
2017-02-12T02:24:17.422Z,75.45
2017-02-12T02:25:27.772Z,75.45
2017-02-12T02:26:38.550Z,75.45
2017-02-12T02:27:49.300Z,75.64
2017-02-12T02:28:59.655Z,75.64
2017-02-12T02:30:09.684Z,75.55
2017-02-12T02:31:20.459Z,75.55
2017-02-12T02:32:31.221Z,75.36
2017-02-12T02:33:41.570Z,75.55
2017-02-12T02:34:51.919Z,75.64
2017-02-12T02:36:01.475Z,75.17
2017-02-12T02:37:12.233Z,75.21
2017-02-12T02:38:22.614Z,74.98
2017-02-12T02:39:33.366Z,75.45
2017-02-12T02:40:43.725Z,75.02
2017-02-12T02:41:54.073Z,75.84
2017-02-12T02:43:04.816Z,74.98
2017-02-12T02:44:15.557Z,75.68
2017-02-12T02:45:25.918Z,75.26
2017-02-12T02:46:36.256Z,75.78
2017-02-12T02:47:46.610Z,74.98
2017-02-12T02:48:56.563Z,75.11
2017-02-12T02:50:07.183Z,75.21
2017-02-12T02:51:17.576Z,75.11
2017-02-12T02:52:28.347Z,75.31
2017-02-12T02:53:39.092Z,75.31
2017-02-12T02:54:49.458Z,75.11
2017-02-12T02:56:00.216Z,75.59
2017-02-12T02:57:10.555Z,75.68
2017-02-12T02:58:20.902Z,75.21
2017-02-12T02:59:30.879Z,75.68
2017-02-12T03:00:41.285Z,75.68
2017-02-12T03:33:10.579Z,72.03
2017-02-12T03:34:21.311Z,72.41
2017-02-12T03:35:31.649Z,73.73
2017-02-12T03:36:41.975Z,74.68
2017-02-12T03:37:51.939Z,75.43
2017-02-12T03:39:02.280Z,76.29
2017-02-12T03:40:13.013Z,76.48
2017-02-12T03:41:23.371Z,76.57
2017-02-12T03:42:33.711Z,76.86
2017-02-12T03:43:44.055Z,77.27
2017-02-12T03:44:54.415Z,77.27
2017-02-12T03:46:05.163Z,76.99
2017-02-12T03:47:15.510Z,77.18
2017-02-12T03:48:25.470Z,76.74
2017-02-12T03:49:35.818Z,76.55
2017-02-12T03:50:46.558Z,76.74
2017-02-12T03:51:56.907Z,77.03
2017-02-12T03:53:07.657Z,76.65
2017-02-12T03:54:18.000Z,76.55
2017-02-12T03:55:28.756Z,76.36
2017-02-12T03:56:39.491Z,76.08
2017-02-12T03:57:50.237Z,76.21
2017-02-12T03:59:00.977Z,76.21
2017-02-12T04:00:10.939Z,76.5
2017-02-12T04:01:20.509Z,76.4
2017-02-12T04:02:31.062Z,75.93
2017-02-12T04:03:41.421Z,76.21
2017-02-12T04:04:52.160Z,76.21
2017-02-12T04:06:02.517Z,76.21
2017-02-12T04:07:13.251Z,76.21
2017-02-12T04:08:23.665Z,75.64
2017-02-12T04:09:34.408Z,75.93
2017-02-12T04:10:44.751Z,76.03
2017-02-12T04:11:55.505Z,75.36
2017-02-12T04:13:06.246Z,75.55
2017-02-12T04:14:17.025Z,75.55
2017-02-12T04:15:27.430Z,75.55
2017-02-12T04:16:37.775Z,75.55
2017-02-12T04:17:48.526Z,75.55
2017-02-12T04:18:58.482Z,75.55
2017-02-12T04:20:09.239Z,75.55
2017-02-12T04:21:19.831Z,75.36
2017-02-12T04:22:30.180Z,75.26
2017-02-12T04:23:40.939Z,75.26
2017-02-12T04:24:51.293Z,75.36
2017-02-12T04:26:02.048Z,75.07
2017-02-12T04:27:12.476Z,75.36
2017-02-12T04:28:22.430Z,75.36
2017-02-12T04:29:33.182Z,75.45
2017-02-12T04:30:43.149Z,75.45
2017-02-12T04:31:53.900Z,75.45
2017-02-12T04:33:04.629Z,75.55
2017-02-12T04:34:14.983Z,75.64
2017-02-12T04:35:25.339Z,75.55
2017-02-12T04:36:36.098Z,75.64
2017-02-12T04:37:46.038Z,75.74
2017-02-12T04:38:55.613Z,75.64
2017-02-12T04:40:05.175Z,75.55
2017-02-12T04:41:15.922Z,75.45
2017-02-12T04:42:26.675Z,75.64
2017-02-12T04:43:37.422Z,75.55
2017-02-12T04:44:48.168Z,75.64
2017-02-12T04:45:58.963Z,75.55
2017-02-12T04:47:09.319Z,75.45
2017-02-12T04:48:20.066Z,75.55
2017-02-12T04:49:30.810Z,75.55
2017-02-12T04:50:41.564Z,75.55
2017-02-12T04:51:51.924Z,75.36
2017-02-12T04:53:01.880Z,75.64
2017-02-12T04:54:12.616Z,75.55
2017-02-12T04:55:22.959Z,75.45
2017-02-12T04:56:32.930Z,75.45
2017-02-12T04:57:43.274Z,75.64
2017-02-12T04:58:53.230Z,75.45
2017-02-12T05:00:03.196Z,75.55
2017-02-12T05:01:13.541Z,75.55
2017-02-12T05:02:23.100Z,75.64
2017-02-12T05:03:33.437Z,75.55
2017-02-12T05:04:43.772Z,75.64
2017-02-12T05:05:54.114Z,75.45
2017-02-12T05:07:04.910Z,75.64
2017-02-12T05:08:15.252Z,75.64
2017-02-12T05:09:25.598Z,75.64
2017-02-12T05:10:36.342Z,75.45
2017-02-12T05:11:46.707Z,75.45
2017-02-12T05:12:57.063Z,75.55
2017-02-12T05:14:07.420Z,75.55
2017-02-12T05:15:18.178Z,75.55
2017-02-12T05:16:28.125Z,75.64
2017-02-12T05:17:38.868Z,75.64
2017-02-12T05:18:49.223Z,75.55
2017-02-12T05:19:58.799Z,75.17
2017-02-12T05:21:09.556Z,75.64
2017-02-12T05:22:19.899Z,75.64
2017-02-12T05:23:30.636Z,75.36
2017-02-12T05:24:41.443Z,75.36
2017-02-12T05:25:51.790Z,75.36
2017-02-12T05:27:02.535Z,75.64
2017-02-12T05:28:12.491Z,75.55
2017-02-12T05:29:23.227Z,75.64
2017-02-12T05:30:33.580Z,75.74
2017-02-12T05:31:43.934Z,75.55
2017-02-12T05:32:54.290Z,75.36
2017-02-12T05:34:04.680Z,75.55
2017-02-12T05:35:15.426Z,75.36
2017-02-12T05:36:26.174Z,75.55
2017-02-12T05:37:36.529Z,75.55
2017-02-12T05:38:46.879Z,75.64
2017-02-12T05:39:57.229Z,75.55
2017-02-12T05:41:07.197Z,75.55
2017-02-12T05:42:17.991Z,75.55
2017-02-12T05:43:28.340Z,75.36
2017-02-12T05:44:38.681Z,75.64
2017-02-12T05:45:49.038Z,75.64
2017-02-12T05:46:58.998Z,75.55
2017-02-12T05:48:09.388Z,75.55
2017-02-12T05:49:19.723Z,75.55
2017-02-12T05:50:30.471Z,75.55
2017-02-12T05:51:40.823Z,75.64
2017-02-12T05:52:51.163Z,75.64
2017-02-12T05:54:01.502Z,75.64
2017-02-12T05:55:11.846Z,75.55
2017-02-12T05:56:22.593Z,75.36
2017-02-12T05:57:32.953Z,75.55
2017-02-12T05:58:43.706Z,75.55
2017-02-12T05:59:54.489Z,75.55
2017-02-12T06:01:04.847Z,75.64
2017-02-12T06:02:15.191Z,75.26
2017-02-12T06:03:25.930Z,75.55
2017-02-12T06:04:36.686Z,75.55
2017-02-12T06:05:46.657Z,75.64
2017-02-12T06:06:57.015Z,75.36
2017-02-12T06:08:07.384Z,75.36
2017-02-12T06:09:18.127Z,75.36
2017-02-12T06:10:28.864Z,75.64
2017-02-12T06:11:38.861Z,75.55
2017-02-12T06:12:49.202Z,75.64
2017-02-12T06:13:59.541Z,75.07
2017-02-12T06:15:10.281Z,75.26
2017-02-12T06:16:20.849Z,74.98
2017-02-12T06:17:31.195Z,75.07
2017-02-12T06:18:40.759Z,74.98
2017-02-12T06:19:51.113Z,75.17
2017-02-12T06:21:01.844Z,75.26
2017-02-12T06:22:11.417Z,75.26
2017-02-12T06:23:22.156Z,75.17
2017-02-12T06:24:32.509Z,75.36
2017-02-12T06:25:43.259Z,75.17
2017-02-12T06:26:54.015Z,75.26
2017-02-12T06:28:04.610Z,75.17
2017-02-12T06:29:14.941Z,75.17
2017-02-12T06:30:25.287Z,75.26
2017-02-12T06:31:35.225Z,75.17
2017-02-12T06:32:45.216Z,75.17
2017-02-12T06:33:55.954Z,75.17
2017-02-12T06:35:06.730Z,75.17
2017-02-12T06:36:17.476Z,75.17
2017-02-12T06:37:28.211Z,75.55
2017-02-12T06:38:38.961Z,75.55
2017-02-12T06:39:49.311Z,75.36
2017-02-12T06:41:00.056Z,74.88
2017-02-12T06:42:10.826Z,74.98
2017-02-12T06:43:21.560Z,74.98
2017-02-12T06:44:31.904Z,74.98
2017-02-12T06:45:41.861Z,75.07
2017-02-12T06:46:52.612Z,74.88
2017-02-12T06:48:02.573Z,74.98
2017-02-12T06:49:13.325Z,74.98
2017-02-12T06:50:23.719Z,75.17
2017-02-12T06:51:34.474Z,74.98
2017-02-12T06:52:45.269Z,74.51
2017-02-12T06:53:55.227Z,74.6
2017-02-12T06:55:05.584Z,74.6
2017-02-12T06:56:15.543Z,74.6
2017-02-12T06:57:26.285Z,74.51
2017-02-12T06:58:37.044Z,74.88
2017-02-12T06:59:47.389Z,74.79
2017-02-12T07:00:58.139Z,74.69
2017-02-12T07:02:08.484Z,74.88
2017-02-12T07:03:19.221Z,75.07
2017-02-12T07:04:29.963Z,74.69
2017-02-12T07:05:40.705Z,74.79
2017-02-12T07:06:51.658Z,74.79
2017-02-12T07:08:02.018Z,74.79
2017-02-12T07:09:12.381Z,74.88
2017-02-12T07:10:23.127Z,74.69
2017-02-12T07:11:33.083Z,74.79
2017-02-12T07:12:43.436Z,74.51
2017-02-12T07:13:54.200Z,74.51
2017-02-12T07:15:04.946Z,74.51
2017-02-12T07:16:15.280Z,74.51
2017-02-12T07:17:25.227Z,74.32
2017-02-12T07:18:35.597Z,74.22
2017-02-12T07:19:46.345Z,74.32
2017-02-12T07:20:57.093Z,74.51
2017-02-12T07:22:07.430Z,74.32
2017-02-12T07:23:18.166Z,74.41
2017-02-12T07:24:28.516Z,74.51
2017-02-12T07:25:38.854Z,73.94
2017-02-12T07:26:49.592Z,74.54
2017-02-12T07:27:59.549Z,74.54
2017-02-12T07:29:09.895Z,74.26
2017-02-12T07:30:20.651Z,74.35
2017-02-12T07:31:31.417Z,74.54
2017-02-12T07:32:42.145Z,74.26
2017-02-12T07:33:52.939Z,74.54
2017-02-12T07:35:03.674Z,74.26
2017-02-12T07:36:14.431Z,74.26
2017-02-12T07:37:24.796Z,74.54
2017-02-12T07:38:35.155Z,74.45
2017-02-12T07:39:44.719Z,74.54
2017-02-12T07:40:55.468Z,74.54
2017-02-12T07:42:06.236Z,74.26
2017-02-12T07:43:16.655Z,74.73
2017-02-12T07:44:27.433Z,74.35
2017-02-12T07:45:38.189Z,73.88
2017-02-12T07:46:48.541Z,73.79
2017-02-12T07:47:58.921Z,73.69
2017-02-12T07:49:09.668Z,73.79
2017-02-12T07:50:20.016Z,73.41
2017-02-12T07:51:30.378Z,73.97
2017-02-12T07:52:41.115Z,73.79
2017-02-12T07:53:51.456Z,73.79
2017-02-12T07:55:01.011Z,73.69
2017-02-12T07:56:11.357Z,73.6
2017-02-12T07:57:21.365Z,73.54
2017-02-12T07:58:30.940Z,73.6
2017-02-12T07:59:41.684Z,73.72
2017-02-12T08:00:52.426Z,73.72
2017-02-12T08:02:03.176Z,74.01
2017-02-12T08:03:13.527Z,73.92
2017-02-12T08:04:24.276Z,73.92
2017-02-12T08:05:34.685Z,73.44
2017-02-12T08:06:45.440Z,73.92
2017-02-12T08:07:55.805Z,73.44
2017-02-12T08:09:06.212Z,73.44
2017-02-12T08:10:16.954Z,73.44
2017-02-12T08:11:27.298Z,73.35
2017-02-12T08:12:37.649Z,73.44
2017-02-12T08:13:48.385Z,73.35
2017-02-12T08:14:57.949Z,73.44
2017-02-12T08:16:07.919Z,73.72
2017-02-12T08:17:18.280Z,73.44
2017-02-12T08:18:28.250Z,73.86
2017-02-12T08:19:38.607Z,73.35
2017-02-12T08:20:48.566Z,73.44
2017-02-12T08:21:58.917Z,73.54
2017-02-12T08:23:09.274Z,73.44
2017-02-12T08:24:19.661Z,73.48
2017-02-12T08:25:30.040Z,73.57
2017-02-12T08:26:40.770Z,73.48
2017-02-12T08:27:51.528Z,73.48
2017-02-12T08:29:01.878Z,73.48
2017-02-12T08:30:12.235Z,73.86
2017-02-12T08:31:22.975Z,73.76
2017-02-12T08:32:33.336Z,73.57
2017-02-12T08:33:43.696Z,74.05
2017-02-12T08:34:54.082Z,73.67
2017-02-12T08:36:04.038Z,73.86
2017-02-12T08:37:13.995Z,73.63
2017-02-12T08:38:24.346Z,73.72
2017-02-12T08:39:35.087Z,73.67
2017-02-12T08:40:45.450Z,73.86
2017-02-12T08:41:56.197Z,73.72
2017-02-12T08:43:06.943Z,73.92
2017-02-12T08:44:17.352Z,73.72
2017-02-12T08:45:27.696Z,73.96
2017-02-12T08:46:38.032Z,73.67
2017-02-12T08:47:48.388Z,73.57
2017-02-12T08:48:58.758Z,73.67
2017-02-12T08:50:09.573Z,73.76
2017-02-12T08:51:20.319Z,73.67
2017-02-12T08:52:31.066Z,73.48
2017-02-12T08:53:41.815Z,73.86
2017-02-12T08:54:52.169Z,73.76
2017-02-12T08:56:02.548Z,73.86
2017-02-12T08:57:12.113Z,73.86
2017-02-12T08:58:22.856Z,73.86
2017-02-12T08:59:32.821Z,73.76
2017-02-12T09:00:43.598Z,73.76
2017-02-12T09:01:53.213Z,73.86
2017-02-12T09:03:03.561Z,73.86
2017-02-12T09:04:13.933Z,73.57
2017-02-12T09:05:24.281Z,73.67
2017-02-12T09:06:34.643Z,73.96
2017-02-12T09:07:45.046Z,73.57
2017-02-12T09:08:55.026Z,73.57
2017-02-12T09:10:05.399Z,73.76
2017-02-12T09:11:15.749Z,73.86
2017-02-12T09:12:26.489Z,73.38
2017-02-12T09:13:36.857Z,73.48
2017-02-12T09:14:47.609Z,73.57
2017-02-12T09:15:57.562Z,73.38
2017-02-12T09:17:07.534Z,73.48
2017-02-12T09:18:17.875Z,73.96
2017-02-12T09:19:27.876Z,73.57
2017-02-12T09:20:38.674Z,73.38
2017-02-12T09:21:49.020Z,73.38
2017-02-12T09:22:58.980Z,73.38
2017-02-12T09:24:09.752Z,73.19
2017-02-12T09:25:20.126Z,73.38
2017-02-12T09:26:30.099Z,73.38
2017-02-12T09:27:40.068Z,73.29
2017-02-12T09:28:50.835Z,73.38
2017-02-12T09:30:00.791Z,73.38
2017-02-12T09:31:11.141Z,73.67
2017-02-12T09:32:21.510Z,73.86
2017-02-12T09:33:31.075Z,73.57
2017-02-12T09:34:41.822Z,73.48
2017-02-12T09:35:52.204Z,73.57
2017-02-12T09:37:02.989Z,73.76
2017-02-12T09:38:12.953Z,73.67
2017-02-12T09:39:22.910Z,73.23
2017-02-12T09:40:33.647Z,73.14
2017-02-12T09:41:43.994Z,73.23
2017-02-12T09:42:54.744Z,73.04
2017-02-12T09:44:05.539Z,73.23
2017-02-12T09:45:15.903Z,73.23
2017-02-12T09:46:26.659Z,73.33
2017-02-12T09:47:37.396Z,73.42
2017-02-12T09:48:47.753Z,73.14
2017-02-12T09:49:58.132Z,73.52
2017-02-12T09:51:08.885Z,73.14
2017-02-12T09:52:19.248Z,73.14
2017-02-12T09:53:28.840Z,73.23
2017-02-12T09:54:39.608Z,73.33
2017-02-12T09:55:50.370Z,73.61
2017-02-12T09:57:00.711Z,73.33
2017-02-12T09:58:11.077Z,73.04
2017-02-12T09:59:21.044Z,72.75
2017-02-12T10:00:31.506Z,72.66
2017-02-12T10:01:41.834Z,72.75
2017-02-12T10:02:52.170Z,72.75
2017-02-12T10:04:02.530Z,72.75
2017-02-12T10:05:12.875Z,72.75
2017-02-12T10:06:22.829Z,72.85
2017-02-12T10:07:32.782Z,73.52
2017-02-12T10:08:43.589Z,72.95
2017-02-12T10:09:53.954Z,72.95
2017-02-12T10:11:04.701Z,72.75
2017-02-12T10:12:14.658Z,72.95
2017-02-12T10:13:25.414Z,72.95
2017-02-12T10:14:36.172Z,72.75
2017-02-12T10:15:46.123Z,72.95
2017-02-12T10:16:55.699Z,73.14
2017-02-12T10:18:06.061Z,72.85
2017-02-12T10:19:16.808Z,72.95
2017-02-12T10:20:27.564Z,72.47
2017-02-12T10:21:37.141Z,72.51
2017-02-12T10:29:08.511Z,72.32
2017-02-12T10:30:18.868Z,72.41
2017-02-12T10:34:00.850Z,72.41
2017-02-12T10:35:11.207Z,72.16
2017-02-12T10:36:21.562Z,72.74
2017-02-12T10:37:31.913Z,72.79
2017-02-12T10:38:42.654Z,72.6
2017-02-12T10:39:53.015Z,72.6
2017-02-12T10:41:03.376Z,72.51
2017-02-12T10:42:14.132Z,72.6
2017-02-12T10:43:24.490Z,72.6
2017-02-12T10:44:34.839Z,72.6
2017-02-12T10:45:44.805Z,72.51
2017-02-12T10:46:55.155Z,72.79
2017-02-12T10:48:05.914Z,72.89
2017-02-12T10:49:16.659Z,72.79
2017-02-12T10:50:27.075Z,72.51
2017-02-12T10:51:37.832Z,72.79
2017-02-12T10:52:48.579Z,72.22
2017-02-12T10:53:59.339Z,72.51
2017-02-12T10:55:10.078Z,72.6
2017-02-12T10:56:20.041Z,72.22
2017-02-12T10:57:30.830Z,72.51
2017-02-12T10:58:41.579Z,72.6
2017-02-12T10:59:51.544Z,72.99
2017-02-12T11:01:02.282Z,72.16
2017-02-12T11:02:13.029Z,71.97
2017-02-12T11:03:22.984Z,71.88
2017-02-12T11:04:33.750Z,72.26
2017-02-12T11:05:44.490Z,71.78
2017-02-12T11:06:54.453Z,71.5
2017-02-12T11:08:04.811Z,71.78
2017-02-12T11:09:15.562Z,71.91
2017-02-12T11:10:25.528Z,71.63
2017-02-12T11:11:35.498Z,71.82
2017-02-12T11:12:45.860Z,71.91
2017-02-12T11:13:56.221Z,71.53
2017-02-12T11:15:06.569Z,71.72
2017-02-12T11:16:17.324Z,71.25
2017-02-12T11:17:27.688Z,71.82
2017-02-12T11:18:38.444Z,70.77
2017-02-12T11:19:49.194Z,70.9
2017-02-12T11:20:59.536Z,71.19
2017-02-12T11:22:10.293Z,71.57
2017-02-12T11:23:21.087Z,71.95
2017-02-12T11:24:31.459Z,71.91
2017-02-12T11:25:42.209Z,71.82
2017-02-12T11:26:52.956Z,72.11
2017-02-12T11:28:03.715Z,72.2
2017-02-12T11:29:14.466Z,72.49
2017-02-12T11:30:24.845Z,72.2
2017-02-12T11:31:35.594Z,73.06
2017-02-12T11:32:46.386Z,72.96
2017-02-12T11:33:57.135Z,72.77
2017-02-12T11:35:07.087Z,72.96
2017-02-12T11:36:17.843Z,72.2
2017-02-12T11:37:27.819Z,72.49
2017-02-12T11:38:38.559Z,72.67
2017-02-12T11:39:49.318Z,72.49
2017-02-12T11:40:58.892Z,72.49
2017-02-12T11:42:09.253Z,72.58
2017-02-12T11:43:19.614Z,72.58
2017-02-12T11:44:30.426Z,72.39
2017-02-12T11:45:40.781Z,72.39
2017-02-12T11:46:50.739Z,72.67
2017-02-12T11:48:01.496Z,72.3
2017-02-12T11:49:11.854Z,72.49
2017-02-12T11:50:22.603Z,72.39
2017-02-12T11:51:32.962Z,73.15
2017-02-12T11:52:42.918Z,72.96
2017-02-12T11:53:53.675Z,72.77
2017-02-12T11:55:04.426Z,72.67
2017-02-12T11:56:15.220Z,72.77
2017-02-12T11:57:24.786Z,73.11
2017-02-12T11:58:35.132Z,73.02
2017-02-12T11:59:45.923Z,73.11
2017-02-12T12:00:56.670Z,72.83
2017-02-12T12:02:07.028Z,72.92
2017-02-12T12:03:17.774Z,72.92
2017-02-12T12:04:28.541Z,73.59
2017-02-12T12:05:39.301Z,73.36
2017-02-12T12:06:50.065Z,73.27
2017-02-12T12:08:00.466Z,72.89
2017-02-12T12:09:11.222Z,72.79
2017-02-12T12:10:21.196Z,72.92
2017-02-12T12:11:31.981Z,72.79
2017-02-12T12:12:42.733Z,72.7
2017-02-12T12:13:53.535Z,73.27
2017-02-12T12:15:03.930Z,73.36
2017-02-12T12:16:13.903Z,73.46
2017-02-12T12:17:24.261Z,73.18
2017-02-12T12:18:35.010Z,73.36
2017-02-12T12:19:44.972Z,73.46
2017-02-12T12:20:55.332Z,73.18
2017-02-12T12:22:06.116Z,73.36
2017-02-12T12:23:16.464Z,73.36
2017-02-12T12:24:27.236Z,73.46
2017-02-12T12:25:37.602Z,73.18
2017-02-12T12:26:47.964Z,73.18
2017-02-12T12:27:57.544Z,73.46
2017-02-12T12:29:08.302Z,73.46
2017-02-12T12:30:18.265Z,73.4
2017-02-12T12:31:29.021Z,73.08
2017-02-12T12:32:39.788Z,73.49
2017-02-12T12:33:50.547Z,73.02
2017-02-12T12:35:01.291Z,73.65
2017-02-12T12:36:12.033Z,73.36
2017-02-12T12:37:22.854Z,73.46
2017-02-12T12:38:33.235Z,73.3
2017-02-12T12:39:43.600Z,73.46
2017-02-12T12:40:54.391Z,73.36
2017-02-12T12:42:04.765Z,73.65
2017-02-12T12:43:14.314Z,73.97
2017-02-12T12:44:24.268Z,73.55
2017-02-12T12:45:34.227Z,73.93
2017-02-12T12:46:44.564Z,73.74
2017-02-12T12:47:54.928Z,73.84
2017-02-12T12:49:05.286Z,73.46
2017-02-12T12:50:15.645Z,73.55
2017-02-12T12:51:25.987Z,73.55
2017-02-12T12:52:36.744Z,73.46
2017-02-12T12:53:47.139Z,73.74
2017-02-12T12:54:57.961Z,73.74
2017-02-12T12:56:08.328Z,73.27
2017-02-12T12:57:19.082Z,73.93
2017-02-12T12:58:29.037Z,74.07
2017-02-12T12:59:38.993Z,73.59
2017-02-12T13:00:48.958Z,73.46
2017-02-12T13:01:59.713Z,73.93
2017-02-12T13:03:10.451Z,73.97
2017-02-12T13:04:20.412Z,74.03
2017-02-12T13:05:30.759Z,73.84
2017-02-12T13:06:41.571Z,73.84
2017-02-12T13:07:52.329Z,73.93
2017-02-12T13:09:03.075Z,73.88
2017-02-12T13:10:13.853Z,74.03
2017-02-12T13:11:23.823Z,73.74
2017-02-12T13:12:34.634Z,73.78
2017-02-12T13:13:44.990Z,74.07
2017-02-12T13:14:55.385Z,73.69
2017-02-12T13:16:06.161Z,73.49
2017-02-12T13:17:16.129Z,73.49
2017-02-12T13:18:26.871Z,73.69
2017-02-12T13:19:36.838Z,73.59
2017-02-12T13:20:47.588Z,73.88
2017-02-12T13:21:57.547Z,73.78
2017-02-12T13:23:07.906Z,73.49
2017-02-12T13:24:17.860Z,73.59
2017-02-12T13:25:28.616Z,73.49
2017-02-12T13:26:39.366Z,73.3
2017-02-12T13:27:49.330Z,73.49
2017-02-12T13:29:00.076Z,73.49
2017-02-12T13:30:10.838Z,73.21
2017-02-12T13:31:21.181Z,73.25
2017-02-12T13:32:31.551Z,73.34
2017-02-12T13:33:42.302Z,73.53
2017-02-12T13:34:52.298Z,73.53
2017-02-12T13:36:03.053Z,73.3
2017-02-12T13:37:13.437Z,73.72
2017-02-12T13:38:24.184Z,73.82
2017-02-12T13:39:34.542Z,73.82
2017-02-12T13:40:45.288Z,73.72
2017-02-12T13:41:55.749Z,73.82
2017-02-12T13:43:06.134Z,73.82
2017-02-12T13:44:16.586Z,73.53
2017-02-12T13:45:27.340Z,73.72
2017-02-12T13:46:37.684Z,73.82
2017-02-12T13:47:48.418Z,73.91
2017-02-12T13:48:59.162Z,73.63
2017-02-12T13:50:09.911Z,73.91
2017-02-12T13:51:20.669Z,73.63
2017-02-12T13:52:31.020Z,73.82
2017-02-12T13:53:41.796Z,74.2
2017-02-12T13:54:52.561Z,74.07
2017-02-12T13:56:02.934Z,73.88
2017-02-12T13:57:13.320Z,74.07
2017-02-12T13:58:24.082Z,73.69
2017-02-12T13:59:34.856Z,73.72
2017-02-12T14:00:45.627Z,73.69
2017-02-12T14:01:55.635Z,73.69
2017-02-12T14:03:06.387Z,73.78
2017-02-12T14:04:16.355Z,74.07
2017-02-12T14:05:27.125Z,73.97
2017-02-12T14:06:37.864Z,74.07
2017-02-12T14:07:48.617Z,74.07
2017-02-12T14:08:58.597Z,74.63
2017-02-12T14:10:09.361Z,74.44
2017-02-12T14:11:19.748Z,74.73
2017-02-12T14:12:30.528Z,74.35
2017-02-12T14:13:40.896Z,74.54
2017-02-12T14:14:51.658Z,74.92
2017-02-12T14:16:02.445Z,74.63
2017-02-12T14:17:12.824Z,74.73
2017-02-12T14:18:23.597Z,74.82
2017-02-12T14:19:33.560Z,74.63
2017-02-12T14:20:44.315Z,74.69
2017-02-12T14:21:55.070Z,74.63
2017-02-12T14:23:05.875Z,74.51
2017-02-12T14:24:16.241Z,74.41
2017-02-12T14:25:26.624Z,75.17
2017-02-12T14:26:36.999Z,74.98
2017-02-12T14:27:47.777Z,75.07
2017-02-12T14:28:58.201Z,74.98
2017-02-12T14:30:08.636Z,75.07
2017-02-12T14:31:19.417Z,75.17
2017-02-12T14:32:29.401Z,75.07
2017-02-12T14:33:40.190Z,74.88
2017-02-12T14:34:50.572Z,75.17
2017-02-12T14:36:00.164Z,74.98
2017-02-12T14:37:10.146Z,75.17
2017-02-12T14:38:20.907Z,75.17
2017-02-12T14:39:31.709Z,75.07
2017-02-12T14:40:42.075Z,75.07
2017-02-12T14:41:52.056Z,75.07
2017-02-12T14:43:02.081Z,74.88
2017-02-12T14:44:12.071Z,74.79
2017-02-12T14:45:22.834Z,74.79
2017-02-12T14:46:33.279Z,74.79
2017-02-12T14:47:43.676Z,74.31
2017-02-12T14:48:54.086Z,74.79
2017-02-12T14:50:04.853Z,74.98
2017-02-12T14:51:15.250Z,75.07
2017-02-12T14:52:26.039Z,74.88
2017-02-12T14:53:36.807Z,75.07
2017-02-12T14:54:47.557Z,74.88
2017-02-12T14:55:57.527Z,74.88
2017-02-12T14:57:07.517Z,75.17
2017-02-12T14:58:17.550Z,75.07
2017-02-12T14:59:28.331Z,74.88
2017-02-12T15:00:39.100Z,74.98
2017-02-12T15:01:49.458Z,74.79
2017-02-12T15:03:00.203Z,74.88
2017-02-12T15:04:10.617Z,74.88
2017-02-12T15:05:20.977Z,75.55
2017-02-12T15:06:30.939Z,75.55
2017-02-12T15:07:41.324Z,75.36
2017-02-12T15:08:52.106Z,75.07
2017-02-12T15:10:02.479Z,75.07
2017-02-12T15:11:13.253Z,75.17
2017-02-12T15:12:24.081Z,75.07
2017-02-12T15:13:34.099Z,75.07
2017-02-12T15:14:44.481Z,74.98
2017-02-12T15:15:55.280Z,75.45
2017-02-12T15:17:05.487Z,75.36
2017-02-12T15:18:15.508Z,75.26
2017-02-12T15:19:25.880Z,74.98
2017-02-12T15:20:36.256Z,75.04
2017-02-12T15:21:46.689Z,75.13
2017-02-12T15:22:57.067Z,75.04
2017-02-12T15:24:07.433Z,75.04
2017-02-12T15:25:17.012Z,75.13
2017-02-12T15:26:26.966Z,75.23
2017-02-12T15:27:37.766Z,75.23
2017-02-12T15:28:48.117Z,74.94
2017-02-12T15:29:58.902Z,75.13
2017-02-12T15:31:09.277Z,75.04
2017-02-12T15:32:20.038Z,74.94
2017-02-12T15:33:30.403Z,75.13
2017-02-12T15:34:40.748Z,75.04
2017-02-12T15:35:51.124Z,75.42
2017-02-12T15:37:01.923Z,74.94
2017-02-12T15:38:12.297Z,75.04
2017-02-12T15:39:22.759Z,75.13
2017-02-12T15:40:33.191Z,75.04
2017-02-12T15:41:43.555Z,75.13
2017-02-12T15:42:53.944Z,74.94
2017-02-12T15:44:04.317Z,75.13
2017-02-12T15:45:15.100Z,75.23
2017-02-12T15:46:25.463Z,75.7
2017-02-12T15:47:35.825Z,75.23
2017-02-12T15:48:45.393Z,75.32
2017-02-12T15:49:55.758Z,75.23